sensor_id;sensor_type;location;lat;lon;timestamp;pressure;altitude;pressure_sealevel;temperature;humidity
54369;BME280;40266;52.434;17.056;2023-06-22T00:01:07;100883.17;;;18.39;100.00
54369;BME280;40266;52.434;17.056;2023-06-22T00:03:51;100882.72;;;18.33;100.00
54369;BME280;40266;52.434;17.056;2023-06-22T00:06:34;100882.30;;;18.28;100.00
54369;BME280;40266;52.434;17.056;2023-06-22T00:09:16;100878.50;;;18.22;100.00
54369;BME280;40266;52.434;17.056;2023-06-22T00:11:59;100882.58;;;18.18;100.00
54369;BME280;40266;52.434;17.056;2023-06-22T00:14:42;100884.20;;;18.13;100.00
54369;BME280;40266;52.434;17.056;2023-06-22T00:17:25;100879.48;;;18.08;100.00
54369;BME280;40266;52.434;17.056;2023-06-22T00:20:08;100882.33;;;18.04;100.00
54369;BME280;40266;52.434;17.056;2023-06-22T00:22:53;100884.07;;;18.00;100.00
54369;BME280;40266;52.434;17.056;2023-06-22T00:25:37;100895.17;;;17.97;100.00
54369;BME280;40266;52.434;17.056;2023-06-22T00:28:22;100899.21;;;17.94;100.00
54369;BME280;40266;52.434;17.056;2023-06-22T00:31:05;100903.44;;;17.89;100.00
54369;BME280;40266;52.434;17.056;2023-06-22T00:33:48;100907.45;;;17.87;100.00
54369;BME280;40266;52.434;17.056;2023-06-22T00:36:33;100910.98;;;17.83;100.00
54369;BME280;40266;52.434;17.056;2023-06-22T00:39:16;100913.06;;;17.79;100.00
54369;BME280;40266;52.434;17.056;2023-06-22T00:41:59;100916.59;;;17.75;100.00
54369;BME280;40266;52.434;17.056;2023-06-22T00:44:42;100921.51;;;17.72;100.00
54369;BME280;40266;52.434;17.056;2023-06-22T00:47:25;100927.85;;;17.68;100.00
54369;BME280;40266;52.434;17.056;2023-06-22T00:50:14;100926.25;;;17.64;100.00
54369;BME280;40266;52.434;17.056;2023-06-22T00:53:06;100927.78;;;17.61;100.00
54369;BME280;40266;52.434;17.056;2023-06-22T00:55:54;100925.92;;;17.59;100.00
54369;BME280;40266;52.434;17.056;2023-06-22T00:58:38;100927.25;;;17.57;100.00
54369;BME280;40266;52.434;17.056;2023-06-22T01:01:24;100925.73;;;17.56;100.00
54369;BME280;40266;52.434;17.056;2023-06-22T01:04:08;100924.60;;;17.53;100.00
54369;BME280;40266;52.434;17.056;2023-06-22T01:10:14;100926.21;;;17.53;100.00
54369;BME280;40266;52.434;17.056;2023-06-22T01:13:07;100923.73;;;17.52;100.00
54369;BME280;40266;52.434;17.056;2023-06-22T01:16:00;100922.55;;;17.51;100.00
54369;BME280;40266;52.434;17.056;2023-06-22T01:18:44;100924.53;;;17.50;100.00
54369;BME280;40266;52.434;17.056;2023-06-22T01:21:30;100923.71;;;17.48;100.00
54369;BME280;40266;52.434;17.056;2023-06-22T01:24:25;100926.73;;;17.48;100.00
54369;BME280;40266;52.434;17.056;2023-06-22T01:27:38;100928.89;;;17.47;100.00
54369;BME280;40266;52.434;17.056;2023-06-22T01:30:30;100929.07;;;17.48;100.00
54369;BME280;40266;52.434;17.056;2023-06-22T01:33:14;100925.77;;;17.46;100.00
54369;BME280;40266;52.434;17.056;2023-06-22T01:36:00;100925.45;;;17.45;100.00
54369;BME280;40266;52.434;17.056;2023-06-22T01:38:44;100927.67;;;17.43;100.00
54369;BME280;40266;52.434;17.056;2023-06-22T01:41:30;100928.88;;;17.39;100.00
54369;BME280;40266;52.434;17.056;2023-06-22T01:44:15;100932.52;;;17.37;100.00
54369;BME280;40266;52.434;17.056;2023-06-22T01:46:59;100931.38;;;17.35;100.00
54369;BME280;40266;52.434;17.056;2023-06-22T01:49:43;100935.01;;;17.32;100.00
54369;BME280;40266;52.434;17.056;2023-06-22T01:52:26;100947.09;;;17.30;100.00
54369;BME280;40266;52.434;17.056;2023-06-22T01:55:10;100948.11;;;17.27;100.00
54369;BME280;40266;52.434;17.056;2023-06-22T01:57:53;100950.36;;;17.24;100.00
54369;BME280;40266;52.434;17.056;2023-06-22T02:00:37;100952.96;;;17.20;100.00
54369;BME280;40266;52.434;17.056;2023-06-22T02:03:26;100953.91;;;17.18;100.00
54369;BME280;40266;52.434;17.056;2023-06-22T02:06:25;100949.79;;;17.16;100.00
54369;BME280;40266;52.434;17.056;2023-06-22T02:09:19;100943.23;;;17.12;100.00
54369;BME280;40266;52.434;17.056;2023-06-22T02:12:04;100939.49;;;17.08;100.00
54369;BME280;40266;52.434;17.056;2023-06-22T02:14:50;100941.85;;;17.06;100.00
54369;BME280;40266;52.434;17.056;2023-06-22T02:17:35;100943.17;;;17.05;100.00
54369;BME280;40266;52.434;17.056;2023-06-22T02:20:18;100948.88;;;17.03;100.00
54369;BME280;40266;52.434;17.056;2023-06-22T02:23:01;100960.39;;;17.02;100.00
54369;BME280;40266;52.434;17.056;2023-06-22T02:25:44;100963.80;;;17.00;100.00
54369;BME280;40266;52.434;17.056;2023-06-22T02:28:27;100961.79;;;16.98;100.00
54369;BME280;40266;52.434;17.056;2023-06-22T02:31:10;100966.77;;;16.97;100.00
54369;BME280;40266;52.434;17.056;2023-06-22T02:33:53;100970.77;;;16.94;100.00
54369;BME280;40266;52.434;17.056;2023-06-22T02:36:38;100971.91;;;16.92;100.00
54369;BME280;40266;52.434;17.056;2023-06-22T02:39:24;100974.60;;;16.91;100.00
54369;BME280;40266;52.434;17.056;2023-06-22T02:42:09;100977.13;;;16.89;100.00
54369;BME280;40266;52.434;17.056;2023-06-22T02:44:53;100974.20;;;16.87;100.00
54369;BME280;40266;52.434;17.056;2023-06-22T02:47:36;100975.36;;;16.85;100.00
54369;BME280;40266;52.434;17.056;2023-06-22T02:50:20;100979.10;;;16.84;100.00
54369;BME280;40266;52.434;17.056;2023-06-22T02:53:03;100983.57;;;16.82;100.00
54369;BME280;40266;52.434;17.056;2023-06-22T02:55:49;100983.44;;;16.81;100.00
54369;BME280;40266;52.434;17.056;2023-06-22T02:58:32;100983.33;;;16.79;100.00
54369;BME280;40266;52.434;17.056;2023-06-22T03:01:25;100981.25;;;16.78;100.00
54369;BME280;40266;52.434;17.056;2023-06-22T03:04:11;100987.09;;;16.77;100.00
54369;BME280;40266;52.434;17.056;2023-06-22T03:06:54;100989.79;;;16.76;100.00
54369;BME280;40266;52.434;17.056;2023-06-22T03:09:38;100988.11;;;16.78;100.00
54369;BME280;40266;52.434;17.056;2023-06-22T03:12:22;100992.43;;;16.81;100.00
54369;BME280;40266;52.434;17.056;2023-06-22T03:15:12;100988.31;;;16.83;100.00
54369;BME280;40266;52.434;17.056;2023-06-22T03:17:58;100987.67;;;16.85;100.00
54369;BME280;40266;52.434;17.056;2023-06-22T03:20:41;100992.17;;;16.87;100.00
54369;BME280;40266;52.434;17.056;2023-06-22T03:23:25;100996.84;;;16.90;100.00
54369;BME280;40266;52.434;17.056;2023-06-22T03:26:09;100999.64;;;16.91;100.00
54369;BME280;40266;52.434;17.056;2023-06-22T03:28:53;101005.73;;;16.93;100.00
54369;BME280;40266;52.434;17.056;2023-06-22T03:31:36;101000.23;;;16.94;100.00
54369;BME280;40266;52.434;17.056;2023-06-22T03:34:20;101003.17;;;16.96;100.00
54369;BME280;40266;52.434;17.056;2023-06-22T03:37:07;101005.30;;;17.00;100.00
54369;BME280;40266;52.434;17.056;2023-06-22T03:39:53;101006.77;;;17.07;100.00
54369;BME280;40266;52.434;17.056;2023-06-22T03:42:37;101011.19;;;17.12;100.00
54369;BME280;40266;52.434;17.056;2023-06-22T03:45:20;101011.27;;;17.14;100.00
54369;BME280;40266;52.434;17.056;2023-06-22T03:48:08;101012.34;;;17.19;100.00
54369;BME280;40266;52.434;17.056;2023-06-22T03:50:51;101014.35;;;17.21;100.00
54369;BME280;40266;52.434;17.056;2023-06-22T03:53:34;101017.02;;;17.21;100.00
54369;BME280;40266;52.434;17.056;2023-06-22T03:56:17;101013.51;;;17.20;100.00
54369;BME280;40266;52.434;17.056;2023-06-22T03:59:03;101009.91;;;17.22;100.00
54369;BME280;40266;52.434;17.056;2023-06-22T04:01:46;101010.36;;;17.24;100.00
54369;BME280;40266;52.434;17.056;2023-06-22T04:04:29;101014.66;;;17.27;100.00
54369;BME280;40266;52.434;17.056;2023-06-22T04:07:15;101018.77;;;17.30;100.00
54369;BME280;40266;52.434;17.056;2023-06-22T04:11:08;101024.36;;;17.36;100.00
54369;BME280;40266;52.434;17.056;2023-06-22T04:13:51;101032.39;;;17.38;100.00
54369;BME280;40266;52.434;17.056;2023-06-22T04:17:59;101035.96;;;17.46;100.00
54369;BME280;40266;52.434;17.056;2023-06-22T04:20:42;101040.17;;;17.51;100.00
54369;BME280;40266;52.434;17.056;2023-06-22T04:23:27;101045.61;;;17.60;100.00
54369;BME280;40266;52.434;17.056;2023-06-22T04:26:11;101048.98;;;17.69;100.00
54369;BME280;40266;52.434;17.056;2023-06-22T04:28:54;101052.92;;;17.76;100.00
54369;BME280;40266;52.434;17.056;2023-06-22T04:31:39;101052.45;;;17.84;100.00
54369;BME280;40266;52.434;17.056;2023-06-22T04:34:22;101050.19;;;17.91;100.00
54369;BME280;40266;52.434;17.056;2023-06-22T04:37:06;101047.82;;;18.02;100.00
54369;BME280;40266;52.434;17.056;2023-06-22T04:39:49;101051.09;;;18.08;100.00
54369;BME280;40266;52.434;17.056;2023-06-22T04:42:34;101051.27;;;18.12;100.00
54369;BME280;40266;52.434;17.056;2023-06-22T04:45:18;101057.40;;;18.18;100.00
54369;BME280;40266;52.434;17.056;2023-06-22T04:48:01;101056.52;;;18.21;100.00
54369;BME280;40266;52.434;17.056;2023-06-22T04:50:44;101057.48;;;18.23;100.00
54369;BME280;40266;52.434;17.056;2023-06-22T04:53:27;101053.76;;;18.28;100.00
54369;BME280;40266;52.434;17.056;2023-06-22T04:56:12;101054.66;;;18.32;100.00
54369;BME280;40266;52.434;17.056;2023-06-22T04:58:55;101060.00;;;18.35;100.00
54369;BME280;40266;52.434;17.056;2023-06-22T05:01:39;101054.96;;;18.41;100.00
54369;BME280;40266;52.434;17.056;2023-06-22T05:04:23;101050.65;;;18.50;100.00
54369;BME280;40266;52.434;17.056;2023-06-22T05:07:07;101048.59;;;18.57;100.00
54369;BME280;40266;52.434;17.056;2023-06-22T05:09:50;101045.27;;;18.64;100.00
54369;BME280;40266;52.434;17.056;2023-06-22T05:12:33;101054.04;;;18.70;100.00
54369;BME280;40266;52.434;17.056;2023-06-22T05:15:16;101059.66;;;18.83;100.00
54369;BME280;40266;52.434;17.056;2023-06-22T05:17:59;101057.69;;;19.03;100.00
54369;BME280;40266;52.434;17.056;2023-06-22T05:20:48;101054.06;;;19.31;100.00
54369;BME280;40266;52.434;17.056;2023-06-22T05:23:31;101047.98;;;19.83;100.00
54369;BME280;40266;52.434;17.056;2023-06-22T05:26:14;101052.98;;;20.28;100.00
54369;BME280;40266;52.434;17.056;2023-06-22T05:28:57;101056.35;;;20.31;100.00
54369;BME280;40266;52.434;17.056;2023-06-22T05:31:40;101050.73;;;20.27;100.00
54369;BME280;40266;52.434;17.056;2023-06-22T05:34:24;101052.50;;;20.20;100.00
54369;BME280;40266;52.434;17.056;2023-06-22T05:37:07;101055.41;;;20.12;100.00
54369;BME280;40266;52.434;17.056;2023-06-22T05:39:52;101051.84;;;20.05;100.00
54369;BME280;40266;52.434;17.056;2023-06-22T05:42:36;101051.73;;;20.04;100.00
54369;BME280;40266;52.434;17.056;2023-06-22T05:45:19;101044.09;;;19.97;100.00
54369;BME280;40266;52.434;17.056;2023-06-22T05:48:02;101042.59;;;20.02;100.00
54369;BME280;40266;52.434;17.056;2023-06-22T05:50:46;101049.84;;;20.24;99.45
54369;BME280;40266;52.434;17.056;2023-06-22T05:53:29;101054.60;;;20.24;99.75
54369;BME280;40266;52.434;17.056;2023-06-22T05:56:12;101054.59;;;20.21;99.67
54369;BME280;40266;52.434;17.056;2023-06-22T05:58:55;101057.10;;;20.20;99.81
54369;BME280;40266;52.434;17.056;2023-06-22T06:01:37;101056.95;;;20.20;99.79
54369;BME280;40266;52.434;17.056;2023-06-22T06:04:22;101060.39;;;20.26;99.13
54369;BME280;40266;52.434;17.056;2023-06-22T06:07:06;101062.91;;;20.24;99.41
54369;BME280;40266;52.434;17.056;2023-06-22T06:09:49;101068.41;;;20.31;98.78
54369;BME280;40266;52.434;17.056;2023-06-22T06:12:32;101066.77;;;20.39;98.01
54369;BME280;40266;52.434;17.056;2023-06-22T06:15:15;101066.14;;;20.45;98.12
54369;BME280;40266;52.434;17.056;2023-06-22T06:17:59;101059.09;;;20.67;98.56
54369;BME280;40266;52.434;17.056;2023-06-22T06:20:42;101062.21;;;20.76;97.15
54369;BME280;40266;52.434;17.056;2023-06-22T06:23:25;101061.92;;;20.71;97.02
54369;BME280;40266;52.434;17.056;2023-06-22T06:26:08;101064.77;;;20.71;96.21
54369;BME280;40266;52.434;17.056;2023-06-22T06:28:51;101069.25;;;20.67;94.57
54369;BME280;40266;52.434;17.056;2023-06-22T06:31:34;101074.06;;;20.67;95.38
54369;BME280;40266;52.434;17.056;2023-06-22T06:34:19;101072.02;;;20.75;94.88
54369;BME280;40266;52.434;17.056;2023-06-22T06:37:02;101064.92;;;20.78;94.18
54369;BME280;40266;52.434;17.056;2023-06-22T06:39:45;101061.99;;;20.86;94.47
54369;BME280;40266;52.434;17.056;2023-06-22T06:42:28;101064.40;;;20.88;93.58
54369;BME280;40266;52.434;17.056;2023-06-22T06:45:12;101065.92;;;20.85;93.31
54369;BME280;40266;52.434;17.056;2023-06-22T06:47:56;101065.91;;;20.85;93.09
54369;BME280;40266;52.434;17.056;2023-06-22T06:50:39;101064.15;;;20.92;92.94
54369;BME280;40266;52.434;17.056;2023-06-22T06:53:22;101069.42;;;21.09;91.76
54369;BME280;40266;52.434;17.056;2023-06-22T06:56:05;101074.52;;;21.20;91.09
54369;BME280;40266;52.434;17.056;2023-06-22T06:58:50;101077.34;;;21.23;90.96
54369;BME280;40266;52.434;17.056;2023-06-22T07:01:33;101080.15;;;21.21;90.48
54369;BME280;40266;52.434;17.056;2023-06-22T07:04:16;101088.38;;;21.23;90.53
54369;BME280;40266;52.434;17.056;2023-06-22T07:07:01;101090.61;;;21.27;89.09
54369;BME280;40266;52.434;17.056;2023-06-22T07:09:44;101093.08;;;21.28;88.31
54369;BME280;40266;52.434;17.056;2023-06-22T07:12:27;101095.34;;;21.26;87.13
54369;BME280;40266;52.434;17.056;2023-06-22T07:15:11;101091.90;;;21.27;88.01
54369;BME280;40266;52.434;17.056;2023-06-22T07:17:55;101086.59;;;21.36;87.84
54369;BME280;40266;52.434;17.056;2023-06-22T07:20:38;101082.21;;;21.45;88.13
54369;BME280;40266;52.434;17.056;2023-06-22T07:23:22;101092.86;;;21.58;87.82
54369;BME280;40266;52.434;17.056;2023-06-22T07:26:05;101095.59;;;21.63;86.01
54369;BME280;40266;52.434;17.056;2023-06-22T07:28:49;101094.42;;;21.65;86.02
54369;BME280;40266;52.434;17.056;2023-06-22T07:31:33;101094.65;;;21.64;85.16
54369;BME280;40266;52.434;17.056;2023-06-22T07:34:17;101093.48;;;21.72;85.94
54369;BME280;40266;52.434;17.056;2023-06-22T07:37:00;101092.82;;;21.77;84.11
54369;BME280;40266;52.434;17.056;2023-06-22T07:39:43;101090.70;;;21.77;83.93
54369;BME280;40266;52.434;17.056;2023-06-22T07:42:27;101088.11;;;21.79;83.94
54369;BME280;40266;52.434;17.056;2023-06-22T07:45:10;101085.46;;;21.78;82.82
54369;BME280;40266;52.434;17.056;2023-06-22T07:47:53;101079.96;;;21.78;82.74
54369;BME280;40266;52.434;17.056;2023-06-22T07:50:36;101079.50;;;21.80;81.18
54369;BME280;40266;52.434;17.056;2023-06-22T07:53:19;101080.66;;;21.82;80.40
54369;BME280;40266;52.434;17.056;2023-06-22T07:56:03;101073.69;;;21.82;79.61
54369;BME280;40266;52.434;17.056;2023-06-22T07:58:50;101076.46;;;21.83;79.21
54369;BME280;40266;52.434;17.056;2023-06-22T08:01:33;101076.18;;;21.88;80.19
54369;BME280;40266;52.434;17.056;2023-06-22T08:04:16;101075.10;;;21.95;79.93
54369;BME280;40266;52.434;17.056;2023-06-22T08:06:59;101082.27;;;22.00;79.84
54369;BME280;40266;52.434;17.056;2023-06-22T08:09:46;101085.05;;;22.06;78.61
54369;BME280;40266;52.434;17.056;2023-06-22T08:12:29;101087.63;;;22.14;78.21
54369;BME280;40266;52.434;17.056;2023-06-22T08:15:12;101091.93;;;22.20;78.37
54369;BME280;40266;52.434;17.056;2023-06-22T08:17:55;101089.63;;;22.26;77.52
54369;BME280;40266;52.434;17.056;2023-06-22T08:20:39;101085.08;;;22.34;77.88
54369;BME280;40266;52.434;17.056;2023-06-22T08:23:21;101077.73;;;22.41;75.23
54369;BME280;40266;52.434;17.056;2023-06-22T08:26:05;101081.08;;;22.59;75.11
54369;BME280;40266;52.434;17.056;2023-06-22T08:28:48;101078.45;;;23.18;75.05
54369;BME280;40266;52.434;17.056;2023-06-22T08:31:32;101078.20;;;23.83;73.92
54369;BME280;40266;52.434;17.056;2023-06-22T08:34:18;101074.58;;;23.97;70.36
54369;BME280;40266;52.434;17.056;2023-06-22T08:37:04;101075.33;;;24.02;70.40
54369;BME280;40266;52.434;17.056;2023-06-22T08:39:49;101080.27;;;24.29;69.33
54369;BME280;40266;52.434;17.056;2023-06-22T08:42:33;101077.02;;;24.66;65.79
54369;BME280;40266;52.434;17.056;2023-06-22T08:45:16;101076.58;;;24.80;67.27
54369;BME280;40266;52.434;17.056;2023-06-22T08:47:59;101077.31;;;24.90;67.09
54369;BME280;40266;52.434;17.056;2023-06-22T08:50:42;101075.23;;;24.86;64.00
54369;BME280;40266;52.434;17.056;2023-06-22T08:53:25;101073.23;;;24.86;65.88
54369;BME280;40266;52.434;17.056;2023-06-22T08:56:08;101077.88;;;24.94;66.46
54369;BME280;40266;52.434;17.056;2023-06-22T08:58:51;101076.56;;;24.97;65.42
54369;BME280;40266;52.434;17.056;2023-06-22T09:01:34;101071.73;;;25.00;62.63
54369;BME280;40266;52.434;17.056;2023-06-22T09:04:17;101067.44;;;24.98;62.46
54369;BME280;40266;52.434;17.056;2023-06-22T09:07:01;101068.62;;;25.04;63.56
54369;BME280;40266;52.434;17.056;2023-06-22T09:09:44;101062.06;;;25.11;61.26
54369;BME280;40266;52.434;17.056;2023-06-22T09:12:27;101055.41;;;25.16;62.09
54369;BME280;40266;52.434;17.056;2023-06-22T09:15:13;101054.05;;;25.25;59.37
54369;BME280;40266;52.434;17.056;2023-06-22T09:18:00;101046.60;;;25.27;58.36
54369;BME280;40266;52.434;17.056;2023-06-22T09:20:45;101041.09;;;25.34;60.17
54369;BME280;40266;52.434;17.056;2023-06-22T09:23:28;101039.02;;;25.40;58.95
54369;BME280;40266;52.434;17.056;2023-06-22T09:26:12;101041.49;;;25.40;58.23
54369;BME280;40266;52.434;17.056;2023-06-22T09:28:55;101039.23;;;25.44;58.36
54369;BME280;40266;52.434;17.056;2023-06-22T09:31:38;101037.93;;;25.45;57.97
54369;BME280;40266;52.434;17.056;2023-06-22T09:34:22;101041.05;;;25.51;57.89
54369;BME280;40266;52.434;17.056;2023-06-22T09:37:05;101038.70;;;25.59;57.35
54369;BME280;40266;52.434;17.056;2023-06-22T09:39:48;101038.21;;;25.70;58.31
54369;BME280;40266;52.434;17.056;2023-06-22T09:42:31;101029.36;;;25.76;56.01
54369;BME280;40266;52.434;17.056;2023-06-22T09:45:14;101028.89;;;25.75;54.07
54369;BME280;40266;52.434;17.056;2023-06-22T09:47:57;101029.38;;;25.73;53.64
54369;BME280;40266;52.434;17.056;2023-06-22T09:50:40;101023.89;;;25.75;55.18
54369;BME280;40266;52.434;17.056;2023-06-22T09:53:23;101023.04;;;25.79;54.93
54369;BME280;40266;52.434;17.056;2023-06-22T09:56:06;101022.67;;;25.89;56.23
54369;BME280;40266;52.434;17.056;2023-06-22T09:58:49;101023.25;;;25.98;55.59
54369;BME280;40266;52.434;17.056;2023-06-22T10:01:38;101023.65;;;26.04;55.44
54369;BME280;40266;52.434;17.056;2023-06-22T10:04:21;101016.85;;;26.09;56.06
54369;BME280;40266;52.434;17.056;2023-06-22T10:07:05;101016.01;;;26.13;55.16
54369;BME280;40266;52.434;17.056;2023-06-22T10:09:48;101015.77;;;26.14;54.90
54369;BME280;40266;52.434;17.056;2023-06-22T10:12:31;101017.52;;;26.14;53.92
54369;BME280;40266;52.434;17.056;2023-06-22T10:15:14;101018.67;;;26.20;54.65
54369;BME280;40266;52.434;17.056;2023-06-22T10:17:58;101019.06;;;26.29;54.61
54369;BME280;40266;52.434;17.056;2023-06-22T10:20:41;101022.36;;;26.35;53.67
54369;BME280;40266;52.434;17.056;2023-06-22T10:23:24;101026.88;;;26.37;53.25
54369;BME280;40266;52.434;17.056;2023-06-22T10:26:08;101027.62;;;26.41;53.65
54369;BME280;40266;52.434;17.056;2023-06-22T10:28:51;101023.16;;;26.47;54.02
54369;BME280;40266;52.434;17.056;2023-06-22T10:31:54;101021.18;;;26.55;52.12
54369;BME280;40266;52.434;17.056;2023-06-22T10:34:36;101018.80;;;26.60;51.45
54369;BME280;40266;52.434;17.056;2023-06-22T10:37:20;101016.66;;;26.62;51.71
54369;BME280;40266;52.434;17.056;2023-06-22T10:40:03;101012.10;;;26.63;49.69
54369;BME280;40266;52.434;17.056;2023-06-22T10:42:48;101011.61;;;26.60;49.09
54369;BME280;40266;52.434;17.056;2023-06-22T10:45:32;101017.75;;;26.59;50.51
54369;BME280;40266;52.434;17.056;2023-06-22T10:48:16;101021.94;;;26.65;51.81
54369;BME280;40266;52.434;17.056;2023-06-22T10:50:59;101018.58;;;26.71;51.94
54369;BME280;40266;52.434;17.056;2023-06-22T10:53:42;101015.18;;;26.76;52.33
54369;BME280;40266;52.434;17.056;2023-06-22T10:56:25;101012.21;;;26.79;51.35
54369;BME280;40266;52.434;17.056;2023-06-22T10:59:08;101014.99;;;26.83;49.36
54369;BME280;40266;52.434;17.056;2023-06-22T11:01:53;101017.45;;;26.83;50.25
54369;BME280;40266;52.434;17.056;2023-06-22T11:04:36;101016.23;;;26.85;48.95
54369;BME280;40266;52.434;17.056;2023-06-22T11:07:19;101009.33;;;26.86;48.99
54369;BME280;40266;52.434;17.056;2023-06-22T11:10:03;101004.24;;;26.89;50.16
54369;BME280;40266;52.434;17.056;2023-06-22T11:12:46;101007.39;;;26.92;50.40
54369;BME280;40266;52.434;17.056;2023-06-22T11:15:29;101009.70;;;26.99;50.09
54369;BME280;40266;52.434;17.056;2023-06-22T11:18:12;100997.93;;;27.05;48.88
54369;BME280;40266;52.434;17.056;2023-06-22T11:20:56;100994.55;;;27.12;48.43
54369;BME280;40266;52.434;17.056;2023-06-22T11:23:39;100988.03;;;27.14;48.53
54369;BME280;40266;52.434;17.056;2023-06-22T11:26:21;100980.36;;;27.19;47.96
54369;BME280;40266;52.434;17.056;2023-06-22T11:29:05;100976.27;;;27.21;45.99
54369;BME280;40266;52.434;17.056;2023-06-22T11:31:48;100973.06;;;27.20;46.97
54369;BME280;40266;52.434;17.056;2023-06-22T11:34:31;100964.81;;;27.25;46.86
54369;BME280;40266;52.434;17.056;2023-06-22T11:37:14;100959.55;;;27.23;45.80
54369;BME280;40266;52.434;17.056;2023-06-22T11:39:58;100961.11;;;27.22;46.80
54369;BME280;40266;52.434;17.056;2023-06-22T11:42:49;100964.23;;;27.25;47.12
54369;BME280;40266;52.434;17.056;2023-06-22T11:45:32;100968.16;;;27.30;45.87
54369;BME280;40266;52.434;17.056;2023-06-22T11:48:15;100968.55;;;27.34;44.49
54369;BME280;40266;52.434;17.056;2023-06-22T11:50:58;100966.56;;;27.34;44.62
54369;BME280;40266;52.434;17.056;2023-06-22T11:53:42;100969.01;;;27.34;44.29
54369;BME280;40266;52.434;17.056;2023-06-22T11:56:25;100966.66;;;27.33;43.43
54369;BME280;40266;52.434;17.056;2023-06-22T11:59:08;100962.13;;;27.31;45.08
54369;BME280;40266;52.434;17.056;2023-06-22T12:01:51;100959.33;;;27.32;45.10
54369;BME280;40266;52.434;17.056;2023-06-22T12:04:34;100953.77;;;27.32;45.34
54369;BME280;40266;52.434;17.056;2023-06-22T12:07:17;100955.38;;;27.32;44.89
54369;BME280;40266;52.434;17.056;2023-06-22T12:10:00;100955.39;;;27.35;45.30
54369;BME280;40266;52.434;17.056;2023-06-22T12:12:44;100952.98;;;27.38;45.77
54369;BME280;40266;52.434;17.056;2023-06-22T12:15:27;100953.77;;;27.41;45.60
54369;BME280;40266;52.434;17.056;2023-06-22T12:18:10;100953.88;;;27.44;45.86
54369;BME280;40266;52.434;17.056;2023-06-22T12:20:54;100948.78;;;27.45;45.74
54369;BME280;40266;52.434;17.056;2023-06-22T12:23:36;100943.73;;;27.45;45.04
54369;BME280;40266;52.434;17.056;2023-06-22T12:26:19;100943.79;;;27.49;46.03
54369;BME280;40266;52.434;17.056;2023-06-22T12:29:02;100941.29;;;27.51;45.24
54369;BME280;40266;52.434;17.056;2023-06-22T12:31:45;100937.98;;;27.54;45.09
54369;BME280;40266;52.434;17.056;2023-06-22T12:34:29;100938.17;;;27.53;44.15
54369;BME280;40266;52.434;17.056;2023-06-22T12:37:12;100937.02;;;27.54;43.58
54369;BME280;40266;52.434;17.056;2023-06-22T12:39:55;100937.77;;;27.56;43.20
54369;BME280;40266;52.434;17.056;2023-06-22T12:42:38;100930.52;;;27.61;44.05
54369;BME280;40266;52.434;17.056;2023-06-22T12:45:21;100923.13;;;27.64;43.26
54369;BME280;40266;52.434;17.056;2023-06-22T12:48:05;100922.67;;;27.67;44.63
54369;BME280;40266;52.434;17.056;2023-06-22T12:50:48;100921.73;;;27.72;43.42
54369;BME280;40266;52.434;17.056;2023-06-22T12:53:31;100922.27;;;27.76;42.80
54369;BME280;40266;52.434;17.056;2023-06-22T12:56:14;100920.32;;;27.76;41.94
54369;BME280;40266;52.434;17.056;2023-06-22T12:58:57;100916.38;;;27.78;43.32
54369;BME280;40266;52.434;17.056;2023-06-22T13:01:40;100920.11;;;27.82;42.80
54369;BME280;40266;52.434;17.056;2023-06-22T13:04:23;100919.23;;;27.82;42.47
54369;BME280;40266;52.434;17.056;2023-06-22T13:07:06;100910.42;;;27.85;42.66
54369;BME280;40266;52.434;17.056;2023-06-22T13:10:05;100904.60;;;27.90;42.72
54369;BME280;40266;52.434;17.056;2023-06-22T13:12:48;100905.17;;;27.93;42.16
54369;BME280;40266;52.434;17.056;2023-06-22T13:15:31;100904.00;;;27.94;42.24
54369;BME280;40266;52.434;17.056;2023-06-22T13:18:15;100899.85;;;27.95;42.53
54369;BME280;40266;52.434;17.056;2023-06-22T13:20:58;100891.33;;;27.98;42.31
54369;BME280;40266;52.434;17.056;2023-06-22T13:23:43;100888.83;;;28.02;42.79
54369;BME280;40266;52.434;17.056;2023-06-22T13:26:26;100884.98;;;28.07;43.34
54369;BME280;40266;52.434;17.056;2023-06-22T13:29:11;100884.77;;;28.13;42.11
54369;BME280;40266;52.434;17.056;2023-06-22T13:31:54;100881.41;;;28.19;42.96
54369;BME280;40266;52.434;17.056;2023-06-22T13:34:39;100883.51;;;28.22;41.97
54369;BME280;40266;52.434;17.056;2023-06-22T13:37:22;100884.34;;;28.20;42.53
54369;BME280;40266;52.434;17.056;2023-06-22T13:40:07;100879.95;;;28.25;42.79
54369;BME280;40266;52.434;17.056;2023-06-22T13:42:50;100879.45;;;28.33;42.87
54369;BME280;40266;52.434;17.056;2023-06-22T13:45:34;100876.94;;;28.43;42.03
54369;BME280;40266;52.434;17.056;2023-06-22T13:48:17;100874.11;;;28.51;41.90
54369;BME280;40266;52.434;17.056;2023-06-22T13:51:00;100874.39;;;28.54;41.50
54369;BME280;40266;52.434;17.056;2023-06-22T13:53:44;100876.42;;;28.55;41.25
54369;BME280;40266;52.434;17.056;2023-06-22T13:56:27;100871.23;;;28.53;40.86
54369;BME280;40266;52.434;17.056;2023-06-22T13:59:10;100867.38;;;28.52;40.48
54369;BME280;40266;52.434;17.056;2023-06-22T14:01:53;100863.74;;;28.52;41.83
54369;BME280;40266;52.434;17.056;2023-06-22T14:04:36;100867.05;;;28.57;41.42
54369;BME280;40266;52.434;17.056;2023-06-22T14:07:20;100864.22;;;28.59;41.90